LTFG

Gazipasa Airport

Alanya, Turkey
TAF LTFG 210740Z 2109/2118 24007KT 9999 SCT030 BECMG 2110/2112 FEW020CB SCT030 PROB30 TEMPO 2112/2116 -TSRA FEW020CB BKN025
Issued Valid From Valid To
Jun-21 @ 07:40 UTC
(3 hours ago)
Jun-21 @ 09:00 UTC
(an hour ago)
Jun-21 @ 18:00 UTC
(in 8 hours)
Expired Click to View Jun-21 @ 09:00 to Jun-21 @ 10:00
TAF LTFG 210740Z 2109/2118 24007KT 9999 SCT030
Wind Visibility Clouds
240° at 7 knots 10,000+ meters
  • Scattered at 3,000' AGL
Becoming Jun-21 @ 10:00 to Jun-21 @ 18:00
BECMG 2110/2112 FEW020CB SCT030
Wind Visibility Clouds
240° at 7 knots 10,000+ meters
  • Few at 2,000' AGL
  • Scattered at 3,000' AGL
Temporary  (Probability 30%) Jun-21 @ 12:00 to Jun-21 @ 16:00
PROB30 TEMPO 2112/2116 -TSRA FEW020CB BKN025
Clouds Conditions
  • Few at 2,000' AGL
  • Broken at 2,500' AGL
  • Light Thunderstorm
  • Light Rain
TAF LTFG 210740Z 2109/2118 24007KT 9999 SCT030 BECMG 2110/2112 FEW020CB SCT030 PROB30 TEMPO 2112/2116 -TSRA FEW020CB BKN025
Issued Jun-21 @ 07:40 UTC
(3 hours ago)
Valid From Jun-21 @ 09:00 UTC
(an hour ago)
Valid To Jun-21 @ 18:00 UTC
(in 8 hours)
Jun-21 @ 09:00 - Jun-21 @ 10:00
Wind Visibility
240° at 7 knots 10,000+ meters
Clouds
  • Scattered at 3,000' AGL
Becoming Jun-21 @ 10:00 - Jun-21 @ 18:00
Wind Visibility
240° at 7 knots 10,000+ meters
Clouds
  • Few at 2,000' AGL
  • Scattered at 3,000' AGL
Probability 30% Temporary Jun-21 @ 12:00 - Jun-21 @ 16:00
Clouds
  • Few at 2,000' AGL
  • Broken at 2,500' AGL
Conditions
  • Light Thunderstorm
  • Light Rain